Time;durP1;ratioP1;P1;durP2;ratioP2;P2;SDS_P1;SDS_P2;PMS_P1;PMS_P2;Temp;Humidity;BMP_temperature;BMP_pressure;BME280_temperature;BME280_humidity;BME280_pressure;Samples;Min_cycle;Max_cycle;Signal;HPM_P1;HPM_P2
2021/01/31 00:00:55;;;;;;;9.33;8.37;;;3.10;85.50;;;;;;5028411;28;20498;-40
2021/01/31 00:03:25;;;;;;;10.43;8.40;;;3.00;85.70;;;;;;5040439;28;20554;-40
2021/01/31 00:05:53;;;;;;;13.60;8.43;;;3.10;86.20;;;;;;5042071;28;20462;-40
2021/01/31 00:08:22;;;;;;;9.23;7.63;;;3.10;86.20;;;;;;5014495;28;20541;-40
2021/01/31 00:10:57;;;;;;;9.47;7.90;;;3.00;86.20;;;;;;5035722;28;20455;-40
2021/01/31 00:13:26;;;;;;;9.77;7.90;;;3.10;86.00;;;;;;5034868;28;20541;-40
2021/01/31 00:15:52;;;;;;;12.27;9.00;;;3.10;85.90;;;;;;5032623;28;20502;-40
2021/01/31 00:18:26;;;;;;;11.60;8.23;;;3.10;85.60;;;;;;5016011;28;20811;-40
2021/01/31 00:20:54;;;;;;;10.63;7.93;;;3.10;85.40;;;;;;5037038;28;20532;-40
2021/01/31 00:23:21;;;;;;;13.57;9.30;;;3.10;85.30;;;;;;5023242;28;20457;-40
2021/01/31 00:25:49;;;;;;;10.50;8.27;;;3.10;85.00;;;;;;5035358;28;20729;-40
2021/01/31 00:28:17;;;;;;;12.53;7.87;;;3.10;84.90;;;;;;5043406;28;20608;-40
2021/01/31 00:30:46;;;;;;;9.27;8.20;;;3.10;85.10;;;;;;5035711;28;20494;-40
2021/01/31 00:33:25;;;;;;;11.17;8.00;;;3.10;84.60;;;;;;5031792;28;20490;-40
2021/01/31 00:35:52;;;;;;;11.33;7.80;;;3.00;84.90;;;;;;5039632;28;21041;-40
2021/01/31 00:38:21;;;;;;;13.90;9.10;;;3.10;85.10;;;;;;5025437;28;20483;-40
2021/01/31 00:40:48;;;;;;;12.93;9.00;;;3.10;84.80;;;;;;5031108;28;20501;-40
2021/01/31 00:43:14;;;;;;;11.43;8.83;;;3.10;85.00;;;;;;5029183;28;20470;-40
2021/01/31 00:45:41;;;;;;;12.97;8.60;;;3.10;85.10;;;;;;5036874;28;20530;-40
2021/01/31 00:48:08;;;;;;;11.57;8.70;;;3.10;85.20;;;;;;5040702;28;20464;-40
2021/01/31 00:50:37;;;;;;;11.90;8.43;;;3.10;84.60;;;;;;5017737;28;20488;-40
2021/01/31 00:53:04;;;;;;;11.27;8.87;;;3.10;84.30;;;;;;5047637;28;20474;-40
2021/01/31 00:55:31;;;;;;;15.17;10.00;;;3.10;84.20;;;;;;5027205;28;20550;-40
2021/01/31 00:57:58;;;;;;;12.93;8.40;;;3.10;84.00;;;;;;5012921;28;20905;-40
2021/01/31 01:00:29;;;;;;;12.83;9.10;;;3.10;84.40;;;;;;4993432;28;20564;-40
2021/01/31 01:02:57;;;;;;;13.60;8.77;;;3.00;84.00;;;;;;5040701;28;20550;-40
2021/01/31 01:05:25;;;;;;;14.33;8.93;;;3.00;84.10;;;;;;5032306;28;20560;-40
2021/01/31 01:07:53;;;;;;;15.00;8.87;;;3.00;84.10;;;;;;5030551;28;20463;-40
2021/01/31 01:10:22;;;;;;;13.63;8.63;;;3.00;84.30;;;;;;5027871;28;20542;-40
2021/01/31 01:12:48;;;;;;;14.60;9.57;;;3.00;84.50;;;;;;5015540;28;20927;-40
2021/01/31 01:15:18;;;;;;;11.93;8.73;;;3.00;84.50;;;;;;5010952;28;20460;-40
2021/01/31 01:17:45;;;;;;;14.27;9.63;;;3.00;84.00;;;;;;5049701;28;20981;-40
2021/01/31 01:20:12;;;;;;;14.40;9.30;;;3.00;83.90;;;;;;5046849;28;20484;-39
2021/01/31 01:22:39;;;;;;;12.13;9.33;;;3.00;83.70;;;;;;5027373;28;20818;-40
2021/01/31 01:25:07;;;;;;;13.53;9.57;;;3.00;83.70;;;;;;5042238;28;20903;-40
2021/01/31 01:27:34;;;;;;;13.00;9.40;;;3.00;83.80;;;;;;5022623;28;20554;-40
2021/01/31 01:30:00;;;;;;;12.23;9.03;;;3.00;83.70;;;;;;5045111;28;20497;-40
2021/01/31 01:32:27;;;;;;;16.13;10.37;;;3.00;83.60;;;;;;5029595;28;20464;-40
2021/01/31 01:34:53;;;;;;;16.50;9.10;;;3.00;83.80;;;;;;5027964;28;20480;-40
2021/01/31 01:37:20;;;;;;;13.97;9.57;;;3.00;83.80;;;;;;5017580;28;20485;-41
2021/01/31 01:39:47;;;;;;;15.30;10.73;;;3.00;83.90;;;;;;5039161;28;20484;-40
2021/01/31 01:42:14;;;;;;;14.57;9.43;;;3.00;84.00;;;;;;5007363;28;20889;-40
2021/01/31 01:44:40;;;;;;;15.97;10.43;;;3.00;84.10;;;;;;5029512;28;20460;-40
2021/01/31 01:47:13;;;;;;;16.00;10.93;;;3.00;83.80;;;;;;5029348;28;20456;-40
2021/01/31 01:49:42;;;;;;;18.47;11.10;;;3.00;83.50;;;;;;5033136;28;20546;-39
2021/01/31 01:52:16;;;;;;;18.43;11.53;;;3.00;83.30;;;;;;5027540;28;20472;-40
2021/01/31 01:54:47;;;;;;;12.70;10.60;;;3.00;83.50;;;;;;5031576;28;21068;-39
2021/01/31 01:57:19;;;;;;;13.70;10.30;;;3.00;83.40;;;;;;5030003;28;20546;-40
2021/01/31 01:59:48;;;;;;;18.30;10.93;;;3.00;83.50;;;;;;5030173;28;21012;-40
2021/01/31 02:02:26;;;;;;;18.87;11.67;;;3.00;83.40;;;;;;5048052;28;20467;-40
2021/01/31 02:04:53;;;;;;;15.20;11.23;;;3.00;83.20;;;;;;5028501;28;20468;-40
2021/01/31 02:07:19;;;;;;;16.33;9.80;;;3.00;83.20;;;;;;5018057;28;20491;-40
2021/01/31 02:09:51;;;;;;;16.40;10.57;;;3.00;83.40;;;;;;5037451;28;20498;-40
2021/01/31 02:12:21;;;;;;;15.50;9.90;;;3.00;83.30;;;;;;5030623;28;21058;-40
2021/01/31 02:14:49;;;;;;;14.97;10.10;;;3.00;82.90;;;;;;5022180;28;20468;-40
2021/01/31 02:17:20;;;;;;;16.20;10.90;;;3.00;83.10;;;;;;5033174;28;20464;-40
2021/01/31 02:20:08;;;;;;;15.40;10.93;;;3.00;83.10;;;;;;5028901;28;20522;-40
2021/01/31 02:22:45;;;;;;;13.13;9.50;;;3.00;82.90;;;;;;5037398;28;20921;-40
2021/01/31 02:25:36;;;;;;;17.47;10.90;;;3.00;83.20;;;;;;5028355;28;20481;-40
2021/01/31 02:28:21;;;;;;;20.23;12.17;;;3.00;82.80;;;;;;5024121;28;20514;-40
2021/01/31 02:30:47;;;;;;;20.30;11.50;;;3.00;82.60;;;;;;5031476;28;20466;-40
2021/01/31 02:33:40;;;;;;;16.27;11.40;;;3.00;82.60;;;;;;5046266;28;21009;-40
2021/01/31 02:36:25;;;;;;;18.13;11.60;;;3.00;82.40;;;;;;5019081;28;20527;-40
2021/01/31 02:39:00;;;;;;;19.80;12.93;;;3.00;82.60;;;;;;5046018;28;20593;-40
2021/01/31 02:41:43;;;;;;;17.53;11.20;;;2.90;82.80;;;;;;5035382;28;20562;-40
2021/01/31 02:44:14;;;;;;;16.90;10.23;;;2.90;82.80;;;;;;5030347;28;20542;-40
2021/01/31 02:46:50;;;;;;;18.87;11.97;;;2.90;83.00;;;;;;5041879;28;20467;-39
2021/01/31 02:49:33;;;;;;;16.80;11.40;;;2.90;82.80;;;;;;5029254;28;20880;-40
2021/01/31 02:52:35;;;;;;;14.43;10.50;;;2.90;82.40;;;;;;5025265;28;20456;-40
2021/01/31 02:55:09;;;;;;;18.13;11.67;;;2.90;82.20;;;;;;4957187;28;20557;-40
2021/01/31 02:57:47;;;;;;;19.70;11.97;;;3.00;81.90;;;;;;5033612;28;20890;-40
2021/01/31 03:00:22;;;;;;;19.90;12.30;;;2.90;81.90;;;;;;5031133;28;20515;-40
2021/01/31 03:02:59;;;;;;;18.80;12.53;;;2.90;82.40;;;;;;5026508;28;21018;-40
2021/01/31 03:05:42;;;;;;;19.23;12.50;;;2.90;82.40;;;;;;5028304;28;20553;-40
2021/01/31 03:08:20;;;;;;;23.30;13.70;;;2.90;81.90;;;;;;5029168;28;20470;-40
2021/01/31 03:11:08;;;;;;;19.50;11.40;;;2.90;82.20;;;;;;5026695;28;20459;-40
2021/01/31 03:13:57;;;;;;;23.67;12.50;;;2.90;82.30;;;;;;5031179;28;20458;-40
2021/01/31 03:16:32;;;;;;;19.30;11.87;;;2.90;81.70;;;;;;5021049;28;20528;-40
2021/01/31 03:19:27;;;;;;;25.20;13.50;;;2.90;81.80;;;;;;5046831;28;20486;-40
2021/01/31 03:22:01;;;;;;;18.77;12.33;;;2.90;81.80;;;;;;5016850;28;20899;-40
2021/01/31 03:24:47;;;;;;;18.37;12.60;;;2.90;82.20;;;;;;5030242;28;20904;-40
2021/01/31 03:27:23;;;;;;;23.83;13.30;;;2.90;81.80;;;;;;5044334;28;20475;-40
2021/01/31 03:29:50;;;;;;;20.93;12.60;;;2.90;81.70;;;;;;5044413;28;20593;-41
2021/01/31 03:32:22;;;;;;;19.47;11.47;;;2.90;81.80;;;;;;5031534;28;20546;-40
2021/01/31 03:35:09;;;;;;;22.47;12.87;;;2.90;81.50;;;;;;5026136;28;20507;-40
2021/01/31 03:37:42;;;;;;;18.70;12.67;;;2.90;81.60;;;;;;5027871;28;20980;-40
2021/01/31 03:40:13;;;;;;;21.03;13.73;;;2.90;81.70;;;;;;5030268;28;20589;-40
2021/01/31 03:42:43;;;;;;;19.90;12.13;;;2.80;81.50;;;;;;5009628;28;21034;-40
2021/01/31 03:45:12;;;;;;;22.47;12.40;;;2.80;81.10;;;;;;5031420;28;20459;-40
2021/01/31 03:47:53;;;;;;;21.53;12.13;;;2.80;81.20;;;;;;5010365;28;20541;-40
2021/01/31 03:50:19;;;;;;;23.27;13.00;;;2.80;81.50;;;;;;5007919;28;20467;-41
2021/01/31 03:52:45;;;;;;;20.33;12.40;;;2.80;81.60;;;;;;5022805;28;20470;-40
2021/01/31 03:55:13;;;;;;;27.47;14.53;;;2.80;81.80;;;;;;5030251;28;21148;-40
2021/01/31 03:57:42;;;;;;;19.83;12.20;;;2.80;81.70;;;;;;5014513;28;20876;-40
2021/01/31 04:00:17;;;;;;;21.83;12.67;;;2.80;81.60;;;;;;5026680;28;20494;-40
2021/01/31 04:02:52;;;;;;;17.90;12.23;;;2.80;81.50;;;;;;5026916;28;20545;-40
2021/01/31 04:05:20;;;;;;;17.60;12.17;;;2.90;81.50;;;;;;5045513;28;20455;-40
2021/01/31 04:07:50;;;;;;;20.10;11.43;;;2.90;81.40;;;;;;5029201;28;20557;-40
2021/01/31 04:10:17;;;;;;;21.73;12.10;;;2.90;81.10;;;;;;5031139;28;20984;-40
2021/01/31 04:12:48;;;;;;;19.37;12.80;;;2.90;81.20;;;;;;5045801;28;20467;-41
2021/01/31 04:15:28;;;;;;;20.40;11.57;;;2.90;81.10;;;;;;5036032;28;20471;-40
2021/01/31 04:17:56;;;;;;;16.60;11.90;;;2.90;81.20;;;;;;5043859;28;20897;-40
2021/01/31 04:20:23;;;;;;;16.50;11.47;;;2.80;81.30;;;;;;5030230;28;20489;-40
2021/01/31 04:22:49;;;;;;;20.67;11.87;;;2.80;80.70;;;;;;5007652;28;20490;-40
2021/01/31 04:25:15;;;;;;;21.20;12.23;;;2.80;80.60;;;;;;5029335;28;20546;-40
2021/01/31 04:27:42;;;;;;;19.53;11.60;;;2.80;80.70;;;;;;5049217;28;20459;-39
2021/01/31 04:30:13;;;;;;;19.67;11.57;;;2.80;81.10;;;;;;5031317;28;20460;-41
2021/01/31 04:32:40;;;;;;;18.90;12.47;;;2.80;80.90;;;;;;5010837;28;20504;-39
2021/01/31 04:35:08;;;;;;;19.90;11.30;;;2.70;80.70;;;;;;5035484;28;20537;-39
2021/01/31 04:37:35;;;;;;;21.20;12.03;;;2.70;80.70;;;;;;5042444;28;20492;-39
2021/01/31 04:40:07;;;;;;;22.67;11.33;;;2.80;80.90;;;;;;5034171;28;20482;-39
2021/01/31 04:42:34;;;;;;;17.90;11.80;;;2.80;81.10;;;;;;5031554;28;20970;-38
2021/01/31 04:45:08;;;;;;;19.70;11.30;;;2.80;80.80;;;;;;5042517;28;20467;-39
2021/01/31 04:47:39;;;;;;;19.40;10.93;;;2.80;80.50;;;;;;5043187;28;20463;-39
2021/01/31 04:50:08;;;;;;;17.23;11.60;;;2.80;80.20;;;;;;5035442;28;20471;-41
2021/01/31 04:52:59;;;;;;;18.20;11.03;;;2.70;79.90;;;;;;5030642;28;20550;-38
2021/01/31 04:55:44;;;;;;;18.30;11.30;;;2.70;80.40;;;;;;5042778;28;20856;-39
2021/01/31 04:58:22;;;;;;;18.07;11.77;;;2.70;80.20;;;;;;5033391;28;21035;-39
2021/01/31 05:00:56;;;;;;;19.83;11.57;;;2.70;80.20;;;;;;5032154;28;20499;-41
2021/01/31 05:03:26;;;;;;;15.87;10.53;;;2.70;80.10;;;;;;5031349;28;20491;-38
2021/01/31 05:05:59;;;;;;;13.87;9.00;;;2.70;80.40;;;;;;5029606;28;20540;-39
2021/01/31 05:08:28;;;;;;;15.80;11.43;;;2.60;79.70;;;;;;5029229;28;20459;-39
2021/01/31 05:11:09;;;;;;;17.70;10.50;;;2.60;80.30;;;;;;5031187;28;20820;-39
2021/01/31 05:13:47;;;;;;;17.17;10.60;;;2.60;80.60;;;;;;5028033;28;20811;-41
2021/01/31 05:16:15;;;;;;;17.50;10.60;;;2.60;80.70;;;;;;5030611;28;20518;-41
2021/01/31 05:18:49;;;;;;;14.90;10.20;;;2.60;80.30;;;;;;5026848;28;20804;-39
2021/01/31 05:21:20;;;;;;;14.63;10.20;;;2.50;80.60;;;;;;5027275;28;20951;-41
2021/01/31 05:23:54;;;;;;;13.97;9.37;;;2.50;80.50;;;;;;5025863;28;20559;-40
2021/01/31 05:26:23;;;;;;;16.80;10.57;;;2.60;80.60;;;;;;5038836;28;20491;-40
2021/01/31 05:29:00;;;;;;;14.53;9.17;;;2.60;79.50;;;;;;5036956;28;20462;-40
2021/01/31 05:31:31;;;;;;;17.80;9.63;;;2.50;79.30;;;;;;5040149;28;20470;-40
2021/01/31 05:34:00;;;;;;;15.23;9.60;;;2.50;79.90;;;;;;5029729;28;20466;-41
2021/01/31 05:36:30;;;;;;;18.40;10.03;;;2.50;79.90;;;;;;5013090;28;20546;-39
2021/01/31 05:38:57;;;;;;;13.67;9.30;;;2.50;80.00;;;;;;5027944;28;20923;-41
2021/01/31 05:41:43;;;;;;;13.43;8.87;;;2.50;80.00;;;;;;5036192;28;20908;-41
2021/01/31 05:44:21;;;;;;;14.67;10.30;;;2.50;80.30;;;;;;5046765;28;20463;-39
2021/01/31 05:47:00;;;;;;;16.73;10.63;;;2.50;80.00;;;;;;5021609;28;20522;-39
2021/01/31 05:49:42;;;;;;;15.13;8.93;;;2.50;80.20;;;;;;5032409;28;20517;-39
2021/01/31 05:52:30;;;;;;;15.57;9.83;;;2.50;79.60;;;;;;5035621;28;20463;-39
2021/01/31 05:54:58;;;;;;;19.17;10.90;;;2.50;79.60;;;;;;5032235;28;20829;-39
2021/01/31 05:57:34;;;;;;;15.97;9.93;;;2.50;79.80;;;;;;5031625;28;20503;-40
2021/01/31 06:00:24;;;;;;;16.40;10.70;;;2.50;79.30;;;;;;5032116;28;20923;-39
2021/01/31 06:03:03;;;;;;;16.50;10.13;;;2.50;79.40;;;;;;5031827;28;20467;-38
2021/01/31 06:05:30;;;;;;;15.57;10.73;;;2.40;80.00;;;;;;5030533;28;20491;-38
2021/01/31 06:08:11;;;;;;;15.13;9.53;;;2.40;79.40;;;;;;5030100;28;20458;-41
2021/01/31 06:10:40;;;;;;;15.03;9.40;;;2.40;80.00;;;;;;5043158;28;20538;-39
2021/01/31 06:13:33;;;;;;;13.70;10.17;;;2.40;79.80;;;;;;5041646;28;20452;-38
2021/01/31 06:16:15;;;;;;;16.33;9.43;;;2.50;79.00;;;;;;5025733;28;20467;-39
2021/01/31 06:19:05;;;;;;;13.83;8.87;;;2.50;79.40;;;;;;5030168;28;20903;-39
2021/01/31 06:21:40;;;;;;;16.07;10.50;;;2.40;79.50;;;;;;5046047;28;20463;-39
2021/01/31 06:24:41;;;;;;;15.93;10.70;;;2.50;79.30;;;;;;5044717;28;20551;-39
2021/01/31 06:27:13;;;;;;;18.43;9.47;;;2.50;79.40;;;;;;5023177;28;20482;-39
2021/01/31 06:29:57;;;;;;;17.60;9.90;;;2.50;79.30;;;;;;5029064;28;20521;-39
2021/01/31 06:32:29;;;;;;;14.73;9.83;;;2.40;79.40;;;;;;5036450;28;20462;-39
2021/01/31 06:35:02;;;;;;;13.10;8.73;;;2.50;79.10;;;;;;5024254;28;20558;-41
2021/01/31 06:38:07;;;;;;;19.60;10.90;;;2.40;79.20;;;;;;5028503;28;20555;-39
2021/01/31 06:41:02;;;;;;;17.80;10.10;;;2.50;79.70;;;;;;5030192;28;20529;-40
2021/01/31 06:44:05;;;;;;;16.20;10.07;;;2.50;80.00;;;;;;5029958;28;20523;-40
2021/01/31 06:46:59;;;;;;;15.33;9.07;;;2.50;79.70;;;;;;5027885;28;21044;-40
2021/01/31 06:49:36;;;;;;;15.27;9.43;;;2.40;79.40;;;;;;5031086;28;20577;-40
2021/01/31 06:52:13;;;;;;;18.03;10.43;;;2.40;79.40;;;;;;5044481;28;20593;-40
2021/01/31 06:55:01;;;;;;;19.43;10.80;;;2.40;79.20;;;;;;5026592;28;20914;-41
2021/01/31 06:57:51;;;;;;;18.40;9.80;;;2.50;79.30;;;;;;5031630;28;21102;-38
2021/01/31 07:00:38;;;;;;;14.10;9.13;;;2.50;79.10;;;;;;5039232;28;20483;-39
2021/01/31 07:03:25;;;;;;;15.83;11.00;;;2.50;78.90;;;;;;5037389;28;20536;-39
2021/01/31 07:06:17;;;;;;;14.40;9.80;;;2.50;79.00;;;;;;5050816;28;20576;-39
2021/01/31 07:09:09;;;;;;;16.33;10.07;;;2.50;79.00;;;;;;5042032;28;20448;-39
2021/01/31 07:11:36;;;;;;;16.30;10.20;;;2.50;79.10;;;;;;5040407;28;20867;-39
2021/01/31 07:14:42;;;;;;;17.43;10.53;;;2.50;79.00;;;;;;5013021;28;20486;-39
2021/01/31 07:17:26;;;;;;;15.27;10.33;;;2.50;79.00;;;;;;5034563;28;20534;-38
2021/01/31 07:20:13;;;;;;;13.87;10.47;;;2.50;79.10;;;;;;5052655;28;20490;-39
2021/01/31 07:22:40;;;;;;;14.03;8.87;;;2.50;79.10;;;;;;5039920;28;20530;-39
2021/01/31 07:25:19;;;;;;;14.73;9.37;;;2.50;78.70;;;;;;5041048;28;20498;-39
2021/01/31 07:27:59;;;;;;;17.47;9.50;;;2.50;78.70;;;;;;5046013;28;20487;-39
2021/01/31 07:30:34;;;;;;;13.87;9.53;;;2.50;78.80;;;;;;5021031;28;21524;-40
2021/01/31 07:33:12;;;;;;;11.87;9.07;;;2.50;78.60;;;;;;5039808;28;20538;-41
2021/01/31 07:35:54;;;;;;;12.80;10.10;;;2.50;78.10;;;;;;5053238;28;20458;-39
2021/01/31 07:38:47;;;;;;;15.83;10.47;;;2.50;78.30;;;;;;5044108;28;20539;-39
2021/01/31 07:41:15;;;;;;;16.07;10.43;;;2.50;78.40;;;;;;5012879;28;20574;-39
2021/01/31 07:43:46;;;;;;;15.20;8.73;;;2.50;78.60;;;;;;5042256;28;20462;-39
2021/01/31 07:46:19;;;;;;;13.77;9.43;;;2.50;78.40;;;;;;5035352;28;20528;-38
2021/01/31 07:48:45;;;;;;;14.03;10.27;;;2.50;78.20;;;;;;5033050;28;20486;-39
2021/01/31 07:51:18;;;;;;;14.10;9.03;;;2.50;78.40;;;;;;5046890;28;20526;-41
2021/01/31 07:53:45;;;;;;;14.67;9.67;;;2.50;78.90;;;;;;5034120;28;20487;-39
2021/01/31 07:56:27;;;;;;;15.40;9.30;;;2.50;79.30;;;;;;5031705;28;20467;-39
2021/01/31 07:58:55;;;;;;;15.13;9.73;;;2.60;78.90;;;;;;5030578;28;20900;-40
2021/01/31 08:01:40;;;;;;;14.13;8.53;;;2.60;78.90;;;;;;5041912;28;20581;-39
2021/01/31 08:04:15;;;;;;;18.07;10.63;;;2.60;78.70;;;;;;5037690;28;20451;-41
2021/01/31 08:06:48;;;;;;;17.43;10.40;;;2.60;78.80;;;;;;5053528;28;20902;-39
2021/01/31 08:09:24;;;;;;;18.97;10.73;;;2.60;78.60;;;;;;5015258;28;20554;-39
2021/01/31 08:12:03;;;;;;;13.67;10.27;;;2.60;78.60;;;;;;5041107;28;22336;-39
2021/01/31 08:15:03;;;;;;;15.27;9.20;;;2.60;78.60;;;;;;5044991;28;20498;-39
2021/01/31 08:17:40;;;;;;;15.67;10.27;;;2.60;78.50;;;;;;5024897;28;20467;-39
2021/01/31 08:20:18;;;;;;;16.80;11.07;;;2.60;78.10;;;;;;5052345;28;20662;-39
2021/01/31 08:22:45;;;;;;;17.70;10.70;;;2.60;78.50;;;;;;5033542;28;20945;-41
2021/01/31 08:25:11;;;;;;;16.70;11.10;;;2.60;78.50;;;;;;5023862;28;20452;-41
2021/01/31 08:27:37;;;;;;;14.63;10.23;;;2.60;78.60;;;;;;5040101;28;21053;-41
2021/01/31 08:30:23;;;;;;;16.80;11.17;;;2.60;78.70;;;;;;5045261;28;20520;-41
2021/01/31 08:32:58;;;;;;;12.80;9.77;;;2.70;78.70;;;;;;5029929;28;20894;-39
2021/01/31 08:35:27;;;;;;;15.37;10.13;;;2.70;78.10;;;;;;5028585;28;20463;-38
2021/01/31 08:38:16;;;;;;;20.87;10.87;;;2.70;78.50;;;;;;5024827;28;21836;-41
2021/01/31 08:41:00;;;;;;;22.07;10.90;;;2.70;78.20;;;;;;5034234;28;20493;-40
2021/01/31 08:43:28;;;;;;;14.10;10.47;;;2.70;77.80;;;;;;5041841;28;20463;-41
2021/01/31 08:46:09;;;;;;;15.07;10.53;;;2.70;77.60;;;;;;5031628;28;20530;-41
2021/01/31 08:48:36;;;;;;;17.73;10.60;;;2.70;77.90;;;;;;5033103;28;20470;-41
2021/01/31 08:51:05;;;;;;;18.43;10.80;;;2.70;78.20;;;;;;5013776;28;20696;-41
2021/01/31 08:53:35;;;;;;;16.53;10.40;;;2.70;78.20;;;;;;5046889;28;20516;-39
2021/01/31 08:56:24;;;;;;;17.80;10.80;;;2.70;78.50;;;;;;5034897;28;20468;-39
2021/01/31 08:58:50;;;;;;;17.93;11.53;;;2.80;78.30;;;;;;5027076;28;20561;-40
2021/01/31 09:01:17;;;;;;;18.20;11.37;;;2.80;78.10;;;;;;5017500;28;20512;-38
2021/01/31 09:03:45;;;;;;;15.77;10.43;;;2.80;78.30;;;;;;5029792;28;20909;-39
2021/01/31 09:06:12;;;;;;;21.03;12.17;;;2.90;78.50;;;;;;4996582;28;20579;-39
2021/01/31 09:08:43;;;;;;;16.37;9.20;;;2.90;78.40;;;;;;5011084;28;20888;-39
2021/01/31 09:11:16;;;;;;;18.57;12.47;;;2.90;78.70;;;;;;5032222;28;20471;-39
2021/01/31 09:13:44;;;;;;;16.17;10.93;;;2.90;78.50;;;;;;5035455;28;20538;-41
2021/01/31 09:16:24;;;;;;;18.73;11.87;;;2.90;78.30;;;;;;5050158;28;20546;-41
2021/01/31 09:19:23;;;;;;;19.77;10.50;;;2.90;78.50;;;;;;5017798;28;20462;-41
2021/01/31 09:21:55;;;;;;;16.83;10.47;;;2.90;78.60;;;;;;5030313;28;20474;-39
2021/01/31 09:24:23;;;;;;;15.30;10.20;;;3.00;78.80;;;;;;5038217;28;20442;-40
2021/01/31 09:26:56;;;;;;;19.50;11.00;;;3.00;78.60;;;;;;5017358;28;20878;-41
2021/01/31 09:29:26;;;;;;;21.80;10.40;;;3.00;78.40;;;;;;5029249;28;20456;-41
2021/01/31 09:32:31;;;;;;;16.20;10.93;;;2.90;78.40;;;;;;5040297;28;20443;-41
2021/01/31 09:34:59;;;;;;;17.20;11.20;;;3.00;78.40;;;;;;5037812;28;20476;-40
2021/01/31 09:37:30;;;;;;;15.43;10.70;;;3.00;78.70;;;;;;5039841;28;20483;-40
2021/01/31 09:40:05;;;;;;;17.27;12.03;;;3.00;78.60;;;;;;5040594;28;20484;-41
2021/01/31 09:42:34;;;;;;;15.00;10.97;;;3.10;78.50;;;;;;5037308;28;20447;-41
2021/01/31 09:45:37;;;;;;;17.20;10.20;;;3.10;78.10;;;;;;5051550;28;20489;-40
2021/01/31 09:48:07;;;;;;;18.33;10.30;;;3.10;78.10;;;;;;5019399;28;20537;-40
2021/01/31 09:50:34;;;;;;;19.67;10.80;;;3.10;77.50;;;;;;5043542;28;20822;-41
2021/01/31 09:53:01;;;;;;;16.50;11.20;;;3.20;77.50;;;;;;5053197;28;20488;-41
2021/01/31 09:55:44;;;;;;;17.67;11.60;;;3.20;77.20;;;;;;5052203;28;20502;-41
2021/01/31 09:58:19;;;;;;;21.47;12.20;;;3.20;77.90;;;;;;5046856;28;20466;-39
2021/01/31 10:00:46;;;;;;;23.20;12.33;;;3.20;77.50;;;;;;5017666;28;20570;-38
2021/01/31 10:03:22;;;;;;;16.03;10.73;;;3.10;77.60;;;;;;5021046;28;20475;-40
2021/01/31 10:05:48;;;;;;;15.60;10.20;;;3.10;78.10;;;;;;5039219;28;20454;-39
2021/01/31 10:08:16;;;;;;;18.13;11.73;;;3.10;77.60;;;;;;4999883;28;20552;-41
2021/01/31 10:10:43;;;;;;;16.00;10.77;;;3.10;77.70;;;;;;5050198;28;20547;-39
2021/01/31 10:13:22;;;;;;;18.00;11.77;;;3.20;77.70;;;;;;5035650;28;20497;-40
2021/01/31 10:16:18;;;;;;;19.83;13.23;;;3.20;77.80;;;;;;5037088;28;20463;-40
2021/01/31 10:18:45;;;;;;;17.60;11.43;;;3.20;77.70;;;;;;5029893;28;20436;-39
2021/01/31 10:21:20;;;;;;;18.90;12.60;;;3.30;78.00;;;;;;5003905;28;20869;-40
2021/01/31 10:23:48;;;;;;;18.70;11.87;;;3.30;77.90;;;;;;5034948;28;20931;-39
2021/01/31 10:26:20;;;;;;;22.30;12.67;;;3.30;77.80;;;;;;5030007;28;20944;-39
2021/01/31 10:28:53;;;;;;;21.20;13.80;;;3.30;77.60;;;;;;5055418;28;20550;-41
2021/01/31 10:31:29;;;;;;;19.07;12.00;;;3.20;77.50;;;;;;5033659;28;20459;-39
2021/01/31 10:34:00;;;;;;;18.27;12.17;;;3.30;77.10;;;;;;5023114;28;20538;-40
2021/01/31 10:36:30;;;;;;;21.30;12.47;;;3.30;77.10;;;;;;5033959;28;20537;-39
2021/01/31 10:39:23;;;;;;;15.93;10.97;;;3.30;77.50;;;;;;5024116;28;20926;-41
2021/01/31 10:41:51;;;;;;;16.77;11.17;;;3.30;77.30;;;;;;5030823;28;20567;-41
2021/01/31 10:44:25;;;;;;;17.90;12.67;;;3.30;77.50;;;;;;5003269;28;20926;-40
2021/01/31 10:46:53;;;;;;;15.37;10.57;;;3.30;77.70;;;;;;5026560;28;20542;-40
2021/01/31 10:49:20;;;;;;;18.87;12.33;;;3.40;77.30;;;;;;5033237;28;20460;-41
2021/01/31 10:51:54;;;;;;;15.90;10.90;;;3.40;76.90;;;;;;5021936;28;20520;-41
2021/01/31 10:54:22;;;;;;;16.40;11.67;;;3.40;76.60;;;;;;5015103;28;20475;-41
2021/01/31 10:56:49;;;;;;;17.70;12.67;;;3.40;76.70;;;;;;5033799;28;20841;-41
2021/01/31 10:59:16;;;;;;;15.80;10.87;;;3.40;77.00;;;;;;5007792;28;20479;-40
2021/01/31 11:01:46;;;;;;;17.30;11.97;;;3.30;77.60;;;;;;5017813;28;20501;-41
2021/01/31 11:04:15;;;;;;;15.10;10.63;;;3.30;78.00;;;;;;5035538;28;20483;-41
2021/01/31 11:06:43;;;;;;;18.43;11.67;;;3.30;78.10;;;;;;5029321;28;20460;-41
2021/01/31 11:09:10;;;;;;;16.80;11.50;;;3.40;77.50;;;;;;5047130;28;20479;-41
2021/01/31 11:11:43;;;;;;;17.57;11.73;;;3.40;77.60;;;;;;5033437;28;20448;-41
2021/01/31 11:14:09;;;;;;;18.47;11.87;;;3.40;77.60;;;;;;5016199;28;20476;-39
2021/01/31 11:16:36;;;;;;;17.30;11.47;;;3.40;77.60;;;;;;5026723;28;20818;-41
2021/01/31 11:19:05;;;;;;;16.40;11.33;;;3.50;77.70;;;;;;5042904;28;20504;-41
2021/01/31 11:21:31;;;;;;;20.77;12.17;;;3.50;77.80;;;;;;5035300;28;20514;-40
2021/01/31 11:23:57;;;;;;;20.97;12.20;;;3.50;77.80;;;;;;5029507;28;20821;-39
2021/01/31 11:26:25;;;;;;;14.00;10.40;;;3.50;77.80;;;;;;5014172;28;20550;-40
2021/01/31 11:28:52;;;;;;;18.77;11.20;;;3.60;78.00;;;;;;5035579;28;20708;-41
2021/01/31 11:31:19;;;;;;;22.30;11.40;;;3.60;77.90;;;;;;5036606;28;20555;-41
2021/01/31 11:33:45;;;;;;;20.97;12.27;;;3.70;77.80;;;;;;5017002;28;20546;-41
2021/01/31 11:36:19;;;;;;;20.10;11.60;;;3.70;78.00;;;;;;5035732;28;20458;-39
2021/01/31 11:38:45;;;;;;;18.60;12.07;;;3.70;77.90;;;;;;5046074;28;20546;-39
2021/01/31 11:41:11;;;;;;;16.80;11.40;;;3.80;77.30;;;;;;5056084;28;20574;-41
2021/01/31 11:43:39;;;;;;;18.60;12.73;;;3.80;76.70;;;;;;5018359;28;20495;-39
2021/01/31 11:46:05;;;;;;;15.60;11.10;;;3.80;76.90;;;;;;5041699;28;20554;-39
2021/01/31 11:48:31;;;;;;;15.67;10.40;;;3.80;76.90;;;;;;5036209;28;20479;-40
2021/01/31 11:50:58;;;;;;;23.20;13.17;;;3.80;76.80;;;;;;5019018;28;20872;-41
2021/01/31 11:53:25;;;;;;;19.80;13.90;;;3.70;76.80;;;;;;5013943;28;20517;-39
2021/01/31 11:55:52;;;;;;;19.60;11.40;;;3.70;77.00;;;;;;5032539;28;20556;-40
2021/01/31 11:58:18;;;;;;;17.17;11.97;;;3.80;77.30;;;;;;5041674;28;20464;-41
2021/01/31 12:00:44;;;;;;;16.60;12.00;;;3.80;76.60;;;;;;5015306;28;20483;-41
2021/01/31 12:03:12;;;;;;;19.73;12.87;;;3.80;77.10;;;;;;5046356;28;20466;-41
2021/01/31 12:05:39;;;;;;;17.40;11.23;;;3.80;76.80;;;;;;4998881;28;20835;-39
2021/01/31 12:08:05;;;;;;;18.63;12.07;;;3.70;77.00;;;;;;5012769;28;20769;-42
2021/01/31 12:10:32;;;;;;;18.53;12.10;;;3.70;76.90;;;;;;5016562;28;20559;-39
2021/01/31 12:13:01;;;;;;;17.40;11.27;;;3.70;77.40;;;;;;5011304;28;20459;-41
2021/01/31 12:15:33;;;;;;;18.73;12.20;;;3.70;77.80;;;;;;5021901;28;20467;-41
2021/01/31 12:18:00;;;;;;;15.37;10.40;;;3.60;77.80;;;;;;5025869;28;20495;-41
2021/01/31 12:20:26;;;;;;;16.87;11.43;;;3.60;78.10;;;;;;5012511;28;20518;-41
2021/01/31 12:22:53;;;;;;;21.20;12.90;;;3.60;78.00;;;;;;5030263;28;20839;-41
2021/01/31 12:25:20;;;;;;;20.43;12.63;;;3.60;77.50;;;;;;5013333;28;20553;-41
2021/01/31 12:27:50;;;;;;;22.30;12.77;;;3.60;77.70;;;;;;5021428;28;20490;-41
2021/01/31 12:30:26;;;;;;;18.77;12.30;;;3.60;78.00;;;;;;5053778;28;20513;-42
2021/01/31 12:32:57;;;;;;;19.60;11.90;;;3.60;78.30;;;;;;5030393;28;20530;-40
2021/01/31 12:35:23;;;;;;;18.60;13.57;;;3.70;77.90;;;;;;5020934;28;20780;-41
2021/01/31 12:37:50;;;;;;;17.90;12.63;;;3.70;78.30;;;;;;5033690;28;20533;-41
2021/01/31 12:40:17;;;;;;;23.77;12.40;;;3.70;78.10;;;;;;5058337;28;20482;-41
2021/01/31 12:42:44;;;;;;;19.90;13.60;;;3.70;77.90;;;;;;5045880;28;20502;-41
2021/01/31 12:45:11;;;;;;;20.47;11.57;;;3.70;77.70;;;;;;5050195;28;20465;-41
2021/01/31 12:47:39;;;;;;;15.73;11.87;;;3.70;77.80;;;;;;5007930;28;20474;-41
2021/01/31 12:50:06;;;;;;;19.73;12.03;;;3.70;77.60;;;;;;5034370;28;20876;-41
2021/01/31 12:52:35;;;;;;;19.03;11.43;;;3.70;78.30;;;;;;5029289;28;20483;-40
2021/01/31 12:55:02;;;;;;;17.43;11.67;;;3.60;78.50;;;;;;5023704;28;20451;-41
2021/01/31 12:57:32;;;;;;;16.60;12.00;;;3.60;78.50;;;;;;5020213;28;20500;-41
2021/01/31 12:59:59;;;;;;;19.13;12.53;;;3.70;78.50;;;;;;5041658;28;20900;-41
2021/01/31 13:02:26;;;;;;;17.37;11.43;;;3.60;78.70;;;;;;4993708;28;21021;-41
2021/01/31 13:04:53;;;;;;;19.03;12.80;;;3.60;78.80;;;;;;5040701;28;20900;-41
2021/01/31 13:07:23;;;;;;;16.03;11.97;;;3.60;79.00;;;;;;5030423;28;20483;-41
2021/01/31 13:09:49;;;;;;;15.27;11.70;;;3.60;79.20;;;;;;5049174;28;20864;-41
2021/01/31 13:12:23;;;;;;;20.53;13.20;;;3.70;79.10;;;;;;5031411;28;20531;-41